sensor_id;sensor_type;location;lat;lon;timestamp;P1;P4;P2;P0;N10;N4;N25;N1;N05;TS
80742;SPS30;70142;50.894;6.052;2023-12-29T00:00:05;3.01;2.90;2.65;2.24;17.89;17.87;17.81;17.49;14.64;0.55
80742;SPS30;70142;50.894;6.052;2023-12-29T00:02:42;2.91;2.80;2.58;2.19;17.49;17.48;17.42;17.13;14.37;0.54
80742;SPS30;70142;50.894;6.052;2023-12-29T00:05:15;3.38;3.26;3.01;2.57;20.57;20.55;20.49;20.16;16.94;0.52
80742;SPS30;70142;50.894;6.052;2023-12-29T00:07:49;3.11;2.98;2.73;2.29;18.33;18.31;18.25;17.91;14.98;0.54
80742;SPS30;70142;50.894;6.052;2023-12-29T00:10:22;3.12;3.00;2.75;2.32;18.55;18.53;18.47;18.15;15.19;0.55
80742;SPS30;70142;50.894;6.052;2023-12-29T00:12:55;3.25;3.13;2.87;2.43;19.39;19.38;19.31;18.98;15.89;0.54
80742;SPS30;70142;50.894;6.052;2023-12-29T00:15:28;3.37;3.24;2.99;2.54;20.29;20.27;20.21;19.87;16.67;0.54
80742;SPS30;70142;50.894;6.052;2023-12-29T00:18:03;3.21;3.06;2.76;2.27;18.18;18.16;18.08;17.70;14.71;0.55
80742;SPS30;70142;50.894;6.052;2023-12-29T00:20:37;3.15;3.01;2.73;2.26;18.09;18.07;18.00;17.64;14.69;0.55
80742;SPS30;70142;50.894;6.052;2023-12-29T00:23:13;3.05;2.90;2.60;2.11;16.86;16.84;16.76;16.37;13.55;0.57
80742;SPS30;70142;50.894;6.052;2023-12-29T00:25:46;3.48;3.30;2.91;2.32;18.58;18.56;18.47;17.99;14.80;0.60
80742;SPS30;70142;50.894;6.052;2023-12-29T00:28:19;3.65;3.44;3.03;2.40;19.18;19.15;19.05;18.53;15.21;0.61
80742;SPS30;70142;50.894;6.052;2023-12-29T00:30:52;3.54;3.34;2.93;2.31;18.45;18.43;18.32;17.81;14.60;0.60
80742;SPS30;70142;50.894;6.052;2023-12-29T00:33:37;3.70;3.48;3.05;2.40;19.18;19.15;19.04;18.50;15.15;0.60
80742;SPS30;70142;50.894;6.052;2023-12-29T00:36:14;3.40;3.19;2.77;2.14;17.15;17.12;17.02;16.50;13.44;0.61
80742;SPS30;70142;50.894;6.052;2023-12-29T00:38:47;3.43;3.23;2.83;2.22;17.74;17.72;17.62;17.11;14.01;0.60
80742;SPS30;70142;50.894;6.052;2023-12-29T00:41:22;3.60;3.39;2.94;2.28;18.26;18.23;18.12;17.57;14.32;0.62
80742;SPS30;70142;50.894;6.052;2023-12-29T00:43:55;3.83;3.59;3.09;2.36;18.90;18.87;18.75;18.14;14.72;0.63
80742;SPS30;70142;50.894;6.052;2023-12-29T00:46:28;3.46;3.24;2.81;2.16;17.28;17.25;17.15;16.60;13.50;0.64
80742;SPS30;70142;50.894;6.052;2023-12-29T00:49:03;2.94;2.78;2.45;1.94;15.48;15.46;15.38;14.96;12.28;0.61
80742;SPS30;70142;50.894;6.052;2023-12-29T00:51:38;3.23;3.05;2.68;2.12;16.97;16.95;16.86;16.40;13.46;0.62
80742;SPS30;70142;50.894;6.052;2023-12-29T00:54:12;3.26;3.07;2.70;2.13;17.05;17.03;16.94;16.47;13.51;0.62
80742;SPS30;70142;50.894;6.052;2023-12-29T00:56:48;3.19;2.99;2.58;1.98;15.83;15.80;15.71;15.20;12.35;0.63
80742;SPS30;70142;50.894;6.052;2023-12-29T00:59:21;3.68;3.46;2.98;2.29;18.34;18.31;18.20;17.62;14.32;0.62
80742;SPS30;70142;50.894;6.052;2023-12-29T01:01:57;3.16;3.00;2.65;2.12;16.91;16.89;16.81;16.37;13.48;0.60
80742;SPS30;70142;50.894;6.052;2023-12-29T01:04:34;3.89;3.68;3.24;2.58;20.59;20.56;20.46;19.91;16.36;0.61
80742;SPS30;70142;50.894;6.052;2023-12-29T01:07:07;3.49;3.28;2.84;2.20;17.60;17.57;17.46;16.93;13.79;0.62
80742;SPS30;70142;50.894;6.052;2023-12-29T01:09:40;3.66;3.43;2.98;2.30;18.41;18.38;18.27;17.71;14.42;0.61
80742;SPS30;70142;50.894;6.052;2023-12-29T01:12:14;4.00;3.76;3.26;2.53;20.20;20.17;20.04;19.43;15.83;0.61
80742;SPS30;70142;50.894;6.052;2023-12-29T01:14:47;3.70;3.48;3.01;2.32;18.53;18.50;18.39;17.81;14.49;0.62
80742;SPS30;70142;50.894;6.052;2023-12-29T01:17:20;4.06;3.81;3.30;2.55;20.35;20.32;20.19;19.56;15.92;0.61
80742;SPS30;70142;50.894;6.052;2023-12-29T01:19:55;3.69;3.47;3.01;2.33;18.66;18.63;18.52;17.95;14.63;0.61
80742;SPS30;70142;50.894;6.052;2023-12-29T01:22:28;4.07;3.82;3.32;2.58;20.60;20.57;20.45;19.83;16.17;0.61
80742;SPS30;70142;50.894;6.052;2023-12-29T01:25:02;3.58;3.38;2.97;2.34;18.71;18.69;18.58;18.07;14.81;0.61
80742;SPS30;70142;50.894;6.052;2023-12-29T01:27:35;3.99;3.77;3.32;2.63;21.00;20.97;20.86;20.29;16.65;0.61
80742;SPS30;70142;50.894;6.052;2023-12-29T01:30:11;4.17;3.94;3.46;2.73;21.82;21.79;21.67;21.07;17.28;0.61
80742;SPS30;70142;50.894;6.052;2023-12-29T01:32:45;3.73;3.52;3.10;2.45;19.60;19.58;19.47;18.94;15.55;0.62
80742;SPS30;70142;50.894;6.052;2023-12-29T01:35:20;4.28;4.01;3.47;2.67;21.39;21.36;21.22;20.55;16.72;0.62
80742;SPS30;70142;50.894;6.052;2023-12-29T01:37:53;4.09;3.84;3.33;2.58;20.66;20.63;20.51;19.88;16.20;0.62
80742;SPS30;70142;50.894;6.052;2023-12-29T01:40:27;3.69;3.48;3.05;2.41;19.23;19.20;19.10;18.56;15.21;0.60
80742;SPS30;70142;50.894;6.052;2023-12-29T01:43:01;4.08;3.83;3.31;2.55;20.35;20.32;20.20;19.55;15.89;0.63
80742;SPS30;70142;50.894;6.052;2023-12-29T01:45:34;4.42;4.16;3.61;2.79;22.34;22.31;22.18;21.50;17.52;0.62
80742;SPS30;70142;50.894;6.052;2023-12-29T01:48:23;3.93;3.71;3.24;2.54;20.34;20.31;20.19;19.61;16.05;0.63
80742;SPS30;70142;50.894;6.052;2023-12-29T01:50:58;4.31;4.04;3.49;2.67;21.37;21.34;21.20;20.52;16.66;0.63
80742;SPS30;70142;50.894;6.052;2023-12-29T01:53:32;4.52;4.24;3.66;2.82;22.52;22.48;22.34;21.63;17.57;0.62
80742;SPS30;70142;50.894;6.052;2023-12-29T01:56:18;4.01;3.77;3.29;2.58;20.59;20.56;20.44;19.85;16.22;0.61
80742;SPS30;70142;50.894;6.052;2023-12-29T01:58:52;3.85;3.60;3.11;2.38;19.06;19.03;18.91;18.30;14.86;0.62
80742;SPS30;70142;50.894;6.052;2023-12-29T02:01:41;4.12;3.87;3.35;2.59;20.72;20.69;20.56;19.92;16.22;0.62
80742;SPS30;70142;50.894;6.052;2023-12-29T02:04:17;3.66;3.43;2.94;2.25;17.96;17.93;17.81;17.22;13.96;0.63
80742;SPS30;70142;50.894;6.052;2023-12-29T02:06:53;3.76;3.53;3.07;2.39;19.09;19.07;18.95;18.38;14.99;0.61
80742;SPS30;70142;50.894;6.052;2023-12-29T02:09:28;4.01;3.77;3.28;2.55;20.38;20.35;20.23;19.63;16.02;0.61
80742;SPS30;70142;50.894;6.052;2023-12-29T02:12:02;3.64;3.43;3.00;2.36;18.83;18.81;18.70;18.17;14.87;0.62
80742;SPS30;70142;50.894;6.052;2023-12-29T02:14:36;3.89;3.66;3.20;2.50;19.97;19.94;19.82;19.24;15.73;0.61
80742;SPS30;70142;50.894;6.052;2023-12-29T02:17:10;3.81;3.58;3.12;2.43;19.45;19.42;19.31;18.74;15.30;0.61
80742;SPS30;70142;50.894;6.052;2023-12-29T02:19:53;3.58;3.39;3.00;2.39;19.13;19.10;19.01;18.51;15.24;0.59
80742;SPS30;70142;50.894;6.052;2023-12-29T02:22:29;4.12;3.87;3.36;2.61;20.87;20.84;20.71;20.08;16.37;0.63
80742;SPS30;70142;50.894;6.052;2023-12-29T02:25:04;4.14;3.85;3.27;2.44;19.49;19.46;19.32;18.60;14.96;0.66
80742;SPS30;70142;50.894;6.052;2023-12-29T02:27:41;4.00;3.71;3.10;2.26;18.07;18.03;17.89;17.15;13.67;0.67
80742;SPS30;70142;50.894;6.052;2023-12-29T02:30:25;4.08;3.79;3.18;2.33;18.66;18.62;18.47;17.74;14.17;0.67
80742;SPS30;70142;50.894;6.052;2023-12-29T02:33:05;3.91;3.62;3.03;2.20;17.58;17.54;17.40;16.68;13.28;0.68
80742;SPS30;70142;50.894;6.052;2023-12-29T02:35:43;3.83;3.56;3.01;2.22;17.75;17.72;17.58;16.90;13.54;0.67
80742;SPS30;70142;50.894;6.052;2023-12-29T02:38:18;3.56;3.31;2.79;2.06;16.48;16.45;16.33;15.70;12.58;0.66
80742;SPS30;70142;50.894;6.052;2023-12-29T02:40:54;3.78;3.52;2.99;2.23;17.80;17.77;17.64;16.99;13.65;0.65
80742;SPS30;70142;50.894;6.052;2023-12-29T02:43:28;3.58;3.34;2.84;2.13;17.02;16.99;16.87;16.26;13.09;0.64
80742;SPS30;70142;50.894;6.052;2023-12-29T02:46:03;4.01;3.74;3.20;2.42;19.32;19.28;19.15;18.48;14.92;0.63
80742;SPS30;70142;50.894;6.052;2023-12-29T02:48:37;3.31;3.09;2.65;2.02;16.14;16.12;16.01;15.47;12.53;0.64
80742;SPS30;70142;50.894;6.052;2023-12-29T02:51:13;3.82;3.57;3.06;2.32;18.59;18.56;18.43;17.81;14.41;0.65
80742;SPS30;70142;50.894;6.052;2023-12-29T02:53:46;3.61;3.34;2.80;2.04;16.34;16.31;16.18;15.52;12.38;0.67
80742;SPS30;70142;50.894;6.052;2023-12-29T02:56:24;3.77;3.50;2.95;2.17;17.39;17.35;17.22;16.55;13.24;0.64
80742;SPS30;70142;50.894;6.052;2023-12-29T02:58:57;3.66;3.39;2.86;2.10;16.82;16.79;16.66;16.00;12.80;0.65
80742;SPS30;70142;50.894;6.052;2023-12-29T03:01:30;3.85;3.59;3.06;2.29;18.30;18.27;18.14;17.48;14.07;0.63
80742;SPS30;70142;50.894;6.052;2023-12-29T03:04:04;3.84;3.58;3.04;2.28;18.25;18.21;18.08;17.43;14.04;0.62
80742;SPS30;70142;50.894;6.052;2023-12-29T03:06:38;4.07;3.78;3.19;2.36;18.84;18.81;18.66;17.94;14.37;0.64
80742;SPS30;70142;50.894;6.052;2023-12-29T03:09:13;3.84;3.56;3.00;2.21;17.67;17.64;17.50;16.82;13.45;0.66
80742;SPS30;70142;50.894;6.052;2023-12-29T03:11:47;3.72;3.43;2.84;2.02;16.18;16.15;16.01;15.29;12.08;0.67
80742;SPS30;70142;50.894;6.052;2023-12-29T03:14:22;3.64;3.36;2.80;2.01;16.06;16.03;15.89;15.21;12.06;0.67
80742;SPS30;70142;50.894;6.052;2023-12-29T03:16:55;4.76;4.35;3.49;2.35;18.81;18.76;18.56;17.54;13.53;0.71
80742;SPS30;70142;50.894;6.052;2023-12-29T03:19:29;4.24;3.88;3.14;2.14;17.14;17.10;16.92;16.03;12.44;0.70
80742;SPS30;70142;50.894;6.052;2023-12-29T03:22:02;3.84;3.50;2.80;1.86;14.88;14.84;14.67;13.83;10.61;0.72
80742;SPS30;70142;50.894;6.052;2023-12-29T03:24:36;4.01;3.67;2.97;2.01;16.12;16.08;15.91;15.07;11.68;0.71
80742;SPS30;70142;50.894;6.052;2023-12-29T03:27:11;4.02;3.71;3.07;2.19;17.55;17.52;17.36;16.60;13.12;0.68
80742;SPS30;70142;50.894;6.052;2023-12-29T03:29:44;3.49;3.23;2.70;1.96;15.65;15.62;15.49;14.84;11.80;0.67
80742;SPS30;70142;50.894;6.052;2023-12-29T03:32:18;4.19;3.86;3.19;2.26;18.12;18.08;17.92;17.11;13.50;0.69
80742;SPS30;70142;50.894;6.052;2023-12-29T03:34:51;4.02;3.69;3.00;2.08;16.61;16.57;16.40;15.58;12.16;0.72
80742;SPS30;70142;50.894;6.052;2023-12-29T03:37:25;4.74;4.30;3.42;2.23;17.88;17.83;17.62;16.56;12.62;0.75
80742;SPS30;70142;50.894;6.052;2023-12-29T03:39:58;3.46;3.15;2.51;1.67;13.35;13.31;13.16;12.41;9.51;0.74
80742;SPS30;70142;50.894;6.052;2023-12-29T03:42:33;4.22;3.88;3.17;2.21;17.65;17.61;17.44;16.59;12.99;0.71
80742;SPS30;70142;50.894;6.052;2023-12-29T03:45:07;3.93;3.60;2.93;2.02;16.19;16.15;15.99;15.19;11.84;0.72
80742;SPS30;70142;50.894;6.052;2023-12-29T03:47:40;4.06;3.69;2.93;1.92;15.40;15.35;15.17;14.27;10.88;0.76
80742;SPS30;70142;50.894;6.052;2023-12-29T03:50:14;4.45;4.04;3.19;2.06;16.47;16.42;16.22;15.20;11.51;0.77
80742;SPS30;70142;50.894;6.052;2023-12-29T03:52:47;3.90;3.55;2.83;1.86;14.91;14.86;14.69;13.83;10.57;0.74
80742;SPS30;70142;50.894;6.052;2023-12-29T03:55:20;4.43;4.03;3.21;2.10;16.85;16.80;16.60;15.62;11.92;0.72
80742;SPS30;70142;50.894;6.052;2023-12-29T03:57:55;4.26;3.85;3.01;1.90;15.25;15.20;15.00;14.00;10.50;0.75
80742;SPS30;70142;50.894;6.052;2023-12-29T04:00:29;3.94;3.55;2.77;1.74;13.97;13.93;13.74;12.81;9.58;0.77
80742;SPS30;70142;50.894;6.052;2023-12-29T04:03:02;4.23;3.85;3.07;2.03;16.23;16.19;16.00;15.07;11.53;0.73
80742;SPS30;70142;50.894;6.052;2023-12-29T04:05:36;3.68;3.35;2.69;1.80;14.44;14.40;14.25;13.45;10.36;0.73
80742;SPS30;70142;50.894;6.052;2023-12-29T04:08:09;3.56;3.24;2.59;1.72;13.74;13.70;13.55;12.77;9.79;0.73
80742;SPS30;70142;50.894;6.052;2023-12-29T04:10:43;4.00;3.63;2.88;1.88;15.09;15.04;14.86;13.97;10.64;0.74
80742;SPS30;70142;50.894;6.052;2023-12-29T04:13:18;3.91;3.53;2.76;1.74;13.93;13.88;13.70;12.78;9.57;0.76
80742;SPS30;70142;50.894;6.052;2023-12-29T04:15:52;4.91;4.42;3.41;2.10;16.82;16.76;16.52;15.33;11.33;0.78
80742;SPS30;70142;50.894;6.052;2023-12-29T04:18:26;4.17;3.75;2.90;1.78;14.28;14.24;14.03;13.02;9.62;0.78
80742;SPS30;70142;50.894;6.052;2023-12-29T04:21:00;3.60;3.23;2.47;1.49;11.93;11.89;11.71;10.81;7.90;0.79
80742;SPS30;70142;50.894;6.052;2023-12-29T04:23:33;4.66;4.18;3.18;1.88;15.08;15.02;14.79;13.60;9.85;0.80
80742;SPS30;70142;50.894;6.052;2023-12-29T04:26:06;4.37;3.93;3.02;1.84;14.74;14.69;14.47;13.40;9.85;0.79
80742;SPS30;70142;50.894;6.052;2023-12-29T04:28:43;4.23;3.81;2.93;1.79;14.38;14.33;14.12;13.09;9.65;0.78
80742;SPS30;70142;50.894;6.052;2023-12-29T04:31:16;4.01;3.61;2.78;1.70;13.61;13.56;13.36;12.38;9.12;0.78
80742;SPS30;70142;50.894;6.052;2023-12-29T04:33:49;4.12;3.72;2.92;1.85;14.84;14.79;14.60;13.64;10.24;0.77
80742;SPS30;70142;50.894;6.052;2023-12-29T04:36:23;4.44;4.01;3.13;1.97;15.76;15.71;15.50;14.45;10.81;0.77
80742;SPS30;70142;50.894;6.052;2023-12-29T04:38:56;4.22;3.80;2.93;1.80;14.39;14.34;14.14;13.11;9.67;0.77
80742;SPS30;70142;50.894;6.052;2023-12-29T04:41:30;4.17;3.75;2.89;1.77;14.16;14.11;13.91;12.89;9.50;0.77
80742;SPS30;70142;50.894;6.052;2023-12-29T04:44:04;4.64;4.18;3.23;2.00;15.99;15.93;15.71;14.58;10.80;0.76
80742;SPS30;70142;50.894;6.052;2023-12-29T04:46:38;4.17;3.75;2.90;1.78;14.24;14.19;13.98;12.97;9.57;0.77
80742;SPS30;70142;50.894;6.052;2023-12-29T04:49:11;4.86;4.39;3.43;2.15;17.26;17.20;16.97;15.82;11.83;0.77
80742;SPS30;70142;50.894;6.052;2023-12-29T04:51:44;4.33;3.91;3.05;1.93;15.42;15.37;15.17;14.15;10.59;0.77
80742;SPS30;70142;50.894;6.052;2023-12-29T04:54:20;4.49;4.05;3.14;1.96;15.66;15.61;15.39;14.32;10.64;0.78
80742;SPS30;70142;50.894;6.052;2023-12-29T04:56:53;4.03;3.62;2.78;1.68;13.47;13.42;13.22;12.23;8.96;0.80
80742;SPS30;70142;50.894;6.052;2023-12-29T04:59:28;4.44;3.98;3.05;1.85;14.79;14.73;14.51;13.41;9.82;0.80
80742;SPS30;70142;50.894;6.052;2023-12-29T05:02:01;3.91;3.51;2.70;1.65;13.19;13.14;12.95;11.99;8.82;0.80
80742;SPS30;70142;50.894;6.052;2023-12-29T05:04:34;4.36;3.96;3.14;2.04;16.37;16.32;16.13;15.14;11.51;0.75
80742;SPS30;70142;50.894;6.052;2023-12-29T05:07:11;4.28;3.86;2.99;1.86;14.92;14.87;14.66;13.64;10.14;0.79
80742;SPS30;70142;50.894;6.052;2023-12-29T05:09:44;3.73;3.36;2.60;1.61;12.87;12.82;12.64;11.74;8.69;0.79
80742;SPS30;70142;50.894;6.052;2023-12-29T05:12:17;5.02;4.49;3.42;2.02;16.21;16.15;15.89;14.62;10.58;0.82
80742;SPS30;70142;50.894;6.052;2023-12-29T05:14:52;4.73;4.23;3.21;1.89;15.19;15.13;14.89;13.68;9.89;0.81
80742;SPS30;70142;50.894;6.052;2023-12-29T05:17:25;4.36;3.92;2.99;1.80;14.42;14.36;14.14;13.05;9.53;0.79
80742;SPS30;70142;50.894;6.052;2023-12-29T05:19:58;4.55;4.08;3.12;1.88;15.06;15.01;14.78;13.64;9.97;0.78
80742;SPS30;70142;50.894;6.052;2023-12-29T05:22:31;4.25;3.82;2.93;1.78;14.26;14.21;14.00;12.95;9.50;0.80
80742;SPS30;70142;50.894;6.052;2023-12-29T05:25:05;3.63;3.27;2.52;1.54;12.38;12.33;12.16;11.27;8.31;0.79
80742;SPS30;70142;50.894;6.052;2023-12-29T05:27:39;4.08;3.68;2.86;1.78;14.26;14.21;14.02;13.04;9.70;0.77
80742;SPS30;70142;50.894;6.052;2023-12-29T05:30:14;3.94;3.57;2.80;1.80;14.41;14.36;14.18;13.27;10.02;0.75
80742;SPS30;70142;50.894;6.052;2023-12-29T05:32:47;4.10;3.70;2.88;1.80;14.41;14.36;14.17;13.19;9.84;0.78
80742;SPS30;70142;50.894;6.052;2023-12-29T05:35:20;4.19;3.76;2.90;1.77;14.17;14.12;13.91;12.88;9.48;0.78
80742;SPS30;70142;50.894;6.052;2023-12-29T05:37:54;3.48;3.12;2.38;1.43;11.45;11.41;11.24;10.37;7.56;0.80
80742;SPS30;70142;50.894;6.052;2023-12-29T05:40:27;4.10;3.66;2.75;1.59;12.72;12.66;12.45;11.38;8.11;0.82
80742;SPS30;70142;50.894;6.052;2023-12-29T05:43:01;3.75;3.36;2.56;1.53;12.28;12.24;12.05;11.11;8.09;0.80
80742;SPS30;70142;50.894;6.052;2023-12-29T05:45:35;3.77;3.40;2.63;1.62;13.00;12.95;12.77;11.86;8.78;0.78
80742;SPS30;70142;50.894;6.052;2023-12-29T05:48:09;3.54;3.20;2.51;1.60;12.78;12.74;12.58;11.76;8.84;0.77
80742;SPS30;70142;50.894;6.052;2023-12-29T05:50:45;3.88;3.51;2.74;1.74;13.94;13.90;13.71;12.81;9.62;0.76
80742;SPS30;70142;50.894;6.052;2023-12-29T05:53:18;4.18;3.75;2.87;1.72;13.75;13.70;13.49;12.44;9.06;0.79
80742;SPS30;70142;50.894;6.052;2023-12-29T05:55:52;3.80;3.41;2.60;1.56;12.49;12.45;12.26;11.30;8.24;0.79
80742;SPS30;70142;50.894;6.052;2023-12-29T05:58:25;3.84;3.44;2.62;1.56;12.50;12.45;12.25;11.29;8.20;0.80
80742;SPS30;70142;50.894;6.052;2023-12-29T06:01:00;3.87;3.46;2.62;1.53;12.24;12.19;11.99;11.00;7.90;0.82
80742;SPS30;70142;50.894;6.052;2023-12-29T06:03:33;3.78;3.38;2.56;1.50;12.06;12.02;11.82;10.85;7.82;0.80
80742;SPS30;70142;50.894;6.052;2023-12-29T06:06:07;4.61;4.11;3.10;1.79;14.38;14.32;14.08;12.88;9.20;0.81
80742;SPS30;70142;50.894;6.052;2023-12-29T06:08:40;4.18;3.72;2.78;1.57;12.56;12.51;12.28;11.17;7.86;0.82
80742;SPS30;70142;50.894;6.052;2023-12-29T06:11:14;4.40;3.89;2.85;1.52;12.21;12.15;11.90;10.67;7.24;0.86
80742;SPS30;70142;50.894;6.052;2023-12-29T06:13:51;4.52;4.01;2.96;1.62;12.97;12.91;12.66;11.42;7.88;0.85
80742;SPS30;70142;50.894;6.052;2023-12-29T06:16:25;4.32;3.84;2.87;1.62;13.01;12.95;12.72;11.58;8.16;0.83
80742;SPS30;70142;50.894;6.052;2023-12-29T06:18:59;4.26;3.79;2.81;1.56;12.53;12.47;12.24;11.09;7.73;0.84
80742;SPS30;70142;50.894;6.052;2023-12-29T06:21:32;4.76;4.24;3.17;1.79;14.39;14.33;14.07;12.81;9.03;0.83
80742;SPS30;70142;50.894;6.052;2023-12-29T06:24:05;4.00;3.56;2.67;1.52;12.18;12.13;11.92;10.86;7.68;0.83
80742;SPS30;70142;50.894;6.052;2023-12-29T06:26:39;4.50;4.00;2.98;1.67;13.42;13.37;13.12;11.92;8.36;0.83
80742;SPS30;70142;50.894;6.052;2023-12-29T06:29:14;3.64;3.25;2.44;1.41;11.31;11.27;11.08;10.13;7.23;0.81
80742;SPS30;70142;50.894;6.052;2023-12-29T06:31:49;3.97;3.54;2.66;1.54;12.33;12.28;12.07;11.03;7.87;0.82
80742;SPS30;70142;50.894;6.052;2023-12-29T06:34:22;3.16;2.83;2.16;1.30;10.39;10.35;10.19;9.40;6.85;0.79
80742;SPS30;70142;50.894;6.052;2023-12-29T06:36:56;3.40;3.06;2.35;1.42;11.42;11.38;11.21;10.37;7.61;0.79
80742;SPS30;70142;50.894;6.052;2023-12-29T06:39:29;3.64;3.27;2.50;1.50;12.01;11.97;11.78;10.87;7.93;0.79
80742;SPS30;70142;50.894;6.052;2023-12-29T06:42:02;3.94;3.53;2.69;1.60;12.80;12.75;12.55;11.56;8.39;0.81
80742;SPS30;70142;50.894;6.052;2023-12-29T06:44:36;3.72;3.33;2.52;1.48;11.87;11.82;11.63;10.67;7.69;0.81
80742;SPS30;70142;50.894;6.052;2023-12-29T06:47:12;3.66;3.28;2.49;1.48;11.85;11.81;11.62;10.69;7.75;0.81
80742;SPS30;70142;50.894;6.052;2023-12-29T06:49:45;3.48;3.12;2.39;1.44;11.53;11.49;11.32;10.45;7.63;0.81
80742;SPS30;70142;50.894;6.052;2023-12-29T06:52:18;3.78;3.39;2.59;1.55;12.42;12.37;12.19;11.24;8.19;0.81
80742;SPS30;70142;50.894;6.052;2023-12-29T06:54:52;3.79;3.40;2.60;1.56;12.47;12.42;12.23;11.28;8.23;0.79
80742;SPS30;70142;50.894;6.052;2023-12-29T06:57:25;3.39;3.03;2.30;1.35;10.83;10.78;10.61;9.74;7.03;0.78
80742;SPS30;70142;50.894;6.052;2023-12-29T06:59:58;3.73;3.35;2.56;1.54;12.36;12.32;12.13;11.20;8.18;0.77
80742;SPS30;70142;50.894;6.052;2023-12-29T07:02:33;3.54;3.19;2.49;1.57;12.54;12.50;12.34;11.50;8.60;0.73
80742;SPS30;70142;50.894;6.052;2023-12-29T07:05:06;2.82;2.58;2.09;1.42;11.37;11.34;11.22;10.63;8.25;0.68
80742;SPS30;70142;50.894;6.052;2023-12-29T07:07:40;3.04;2.79;2.28;1.58;12.66;12.63;12.51;11.89;9.30;0.67
80742;SPS30;70142;50.894;6.052;2023-12-29T07:10:14;3.11;2.84;2.29;1.54;12.32;12.29;12.16;11.49;8.87;0.70
80742;SPS30;70142;50.894;6.052;2023-12-29T07:12:48;3.18;2.90;2.33;1.56;12.49;12.46;12.32;11.64;8.96;0.71
80742;SPS30;70142;50.894;6.052;2023-12-29T07:15:22;2.91;2.67;2.18;1.51;12.09;12.06;11.94;11.35;8.87;0.69
80742;SPS30;70142;50.894;6.052;2023-12-29T07:17:56;3.27;3.00;2.45;1.70;13.58;13.55;13.42;12.75;9.97;0.70
80742;SPS30;70142;50.894;6.052;2023-12-29T07:20:33;3.47;3.17;2.54;1.70;13.61;13.58;13.43;12.68;9.76;0.74
80742;SPS30;70142;50.894;6.052;2023-12-29T07:23:06;3.13;2.84;2.26;1.48;11.85;11.81;11.67;10.97;8.37;0.75
80742;SPS30;70142;50.894;6.052;2023-12-29T07:25:39;3.46;3.13;2.45;1.56;12.48;12.44;12.28;11.47;8.62;0.76
80742;SPS30;70142;50.894;6.052;2023-12-29T07:28:15;3.79;3.41;2.62;1.60;12.84;12.80;12.61;11.68;8.60;0.76
80742;SPS30;70142;50.894;6.052;2023-12-29T07:30:48;3.72;3.36;2.60;1.61;12.89;12.84;12.66;11.77;8.73;0.76
80742;SPS30;70142;50.894;6.052;2023-12-29T07:33:23;4.20;3.79;2.95;1.85;14.82;14.77;14.57;13.57;10.13;0.77
80742;SPS30;70142;50.894;6.052;2023-12-29T07:35:56;4.41;3.97;3.05;1.86;14.92;14.87;14.65;13.57;9.99;0.78
80742;SPS30;70142;50.894;6.052;2023-12-29T07:38:30;4.33;3.90;3.03;1.88;15.07;15.02;14.81;13.78;10.24;0.75
80742;SPS30;70142;50.894;6.052;2023-12-29T07:41:03;3.64;3.31;2.63;1.72;13.75;13.71;13.55;12.73;9.70;0.72
80742;SPS30;70142;50.894;6.052;2023-12-29T07:43:36;3.78;3.43;2.73;1.79;14.30;14.26;14.09;13.25;10.10;0.71
80742;SPS30;70142;50.894;6.052;2023-12-29T07:46:10;4.66;4.22;3.32;2.13;17.03;16.98;16.76;15.69;11.84;0.72
80742;SPS30;70142;50.894;6.052;2023-12-29T07:48:44;3.99;3.62;2.87;1.87;14.94;14.90;14.72;13.82;10.51;0.73
80742;SPS30;70142;50.894;6.052;2023-12-29T07:51:18;4.17;3.77;2.97;1.90;15.21;15.16;14.97;14.01;10.57;0.75
80742;SPS30;70142;50.894;6.052;2023-12-29T07:53:51;3.79;3.43;2.67;1.68;13.49;13.44;13.26;12.37;9.25;0.75
80742;SPS30;70142;50.894;6.052;2023-12-29T07:56:24;4.50;4.06;3.14;1.95;15.63;15.58;15.36;14.28;10.60;0.75
80742;SPS30;70142;50.894;6.052;2023-12-29T07:58:58;4.39;3.96;3.07;1.90;15.26;15.21;15.00;13.94;10.35;0.75
80742;SPS30;70142;50.894;6.052;2023-12-29T08:01:31;4.49;4.04;3.12;1.91;15.31;15.26;15.04;13.95;10.29;0.76
80742;SPS30;70142;50.894;6.052;2023-12-29T08:04:06;4.10;3.69;2.83;1.71;13.70;13.65;13.45;12.43;9.11;0.77
80742;SPS30;70142;50.894;6.052;2023-12-29T08:06:42;4.49;4.05;3.15;1.97;15.75;15.70;15.48;14.41;10.74;0.76
80742;SPS30;70142;50.894;6.052;2023-12-29T08:09:16;4.59;4.14;3.21;2.00;16.03;15.98;15.76;14.66;10.91;0.76
80742;SPS30;70142;50.894;6.052;2023-12-29T08:11:49;3.71;3.37;2.67;1.74;13.97;13.93;13.76;12.93;9.84;0.73
80742;SPS30;70142;50.894;6.052;2023-12-29T08:14:22;3.70;3.37;2.70;1.80;14.37;14.33;14.17;13.37;10.27;0.71
80742;SPS30;70142;50.894;6.052;2023-12-29T08:16:56;3.73;3.43;2.81;1.95;15.64;15.61;15.46;14.71;11.52;0.68
80742;SPS30;70142;50.894;6.052;2023-12-29T08:19:30;3.83;3.54;2.93;2.09;16.73;16.70;16.55;15.82;12.50;0.67
80742;SPS30;70142;50.894;6.052;2023-12-29T08:22:04;3.51;3.26;2.73;1.98;15.88;15.84;15.72;15.07;12.01;0.66
80742;SPS30;70142;50.894;6.052;2023-12-29T08:24:39;3.59;3.31;2.75;1.96;15.72;15.69;15.55;14.87;11.77;0.67
80742;SPS30;70142;50.894;6.052;2023-12-29T08:27:14;3.58;3.29;2.71;1.92;15.33;15.30;15.16;14.46;11.38;0.69
80742;SPS30;70142;50.894;6.052;2023-12-29T08:29:55;3.51;3.19;2.54;1.68;13.44;13.40;13.24;12.47;9.54;0.72
80742;SPS30;70142;50.894;6.052;2023-12-29T08:32:28;4.06;3.68;2.91;1.88;15.08;15.04;14.85;13.93;10.56;0.73
80742;SPS30;70142;50.894;6.052;2023-12-29T08:35:03;3.52;3.20;2.54;1.66;13.27;13.23;13.07;12.28;9.35;0.72
80742;SPS30;70142;50.894;6.052;2023-12-29T08:37:38;3.54;3.21;2.54;1.64;13.12;13.08;12.92;12.11;9.18;0.73
80742;SPS30;70142;50.894;6.052;2023-12-29T08:40:14;3.62;3.29;2.61;1.70;13.64;13.60;13.43;12.62;9.61;0.71
80742;SPS30;70142;50.894;6.052;2023-12-29T08:42:47;4.11;3.72;2.92;1.87;14.98;14.94;14.75;13.80;10.40;0.73
80742;SPS30;70142;50.894;6.052;2023-12-29T08:45:21;3.27;3.00;2.44;1.68;13.46;13.42;13.29;12.62;9.83;0.68
80742;SPS30;70142;50.894;6.052;2023-12-29T08:47:54;3.34;3.05;2.47;1.68;13.42;13.39;13.25;12.55;9.72;0.69
80742;SPS30;70142;50.894;6.052;2023-12-29T08:50:29;3.22;2.95;2.40;1.65;13.24;13.21;13.07;12.41;9.67;0.68
80742;SPS30;70142;50.894;6.052;2023-12-29T08:53:02;3.27;3.00;2.44;1.69;13.50;13.47;13.33;12.67;9.89;0.68
80742;SPS30;70142;50.894;6.052;2023-12-29T08:55:36;3.35;3.05;2.45;1.64;13.10;13.07;12.93;12.20;9.39;0.70
80742;SPS30;70142;50.894;6.052;2023-12-29T08:58:09;2.91;2.66;2.15;1.46;11.68;11.65;11.53;10.92;8.46;0.69
80742;SPS30;70142;50.894;6.052;2023-12-29T09:00:43;3.12;2.83;2.24;1.45;11.62;11.58;11.44;10.74;8.15;0.72
80742;SPS30;70142;50.894;6.052;2023-12-29T09:03:16;3.29;2.98;2.36;1.53;12.25;12.21;12.07;11.32;8.59;0.72
80742;SPS30;70142;50.894;6.052;2023-12-29T09:05:51;2.81;2.57;2.08;1.41;11.25;11.22;11.10;10.51;8.13;0.70
80742;SPS30;70142;50.894;6.052;2023-12-29T09:08:25;2.63;2.39;1.92;1.29;10.31;10.28;10.17;9.61;7.40;0.71
80742;SPS30;70142;50.894;6.052;2023-12-29T09:10:59;3.21;2.93;2.36;1.60;12.79;12.76;12.62;11.94;9.24;0.71
80742;SPS30;70142;50.894;6.052;2023-12-29T09:13:33;2.71;2.49;2.03;1.42;11.34;11.31;11.20;10.66;8.34;0.70
80742;SPS30;70142;50.894;6.052;2023-12-29T09:16:05;2.85;2.61;2.11;1.44;11.57;11.54;11.42;10.82;8.41;0.70
80742;SPS30;70142;50.894;6.052;2023-12-29T09:18:39;2.76;2.52;2.04;1.39;11.14;11.11;11.00;10.42;8.09;0.71
80742;SPS30;70142;50.894;6.052;2023-12-29T09:21:13;2.80;2.58;2.13;1.51;12.07;12.05;11.94;11.40;8.99;0.68
80742;SPS30;70142;50.894;6.052;2023-12-29T09:23:47;2.53;2.34;1.96;1.43;11.40;11.38;11.29;10.82;8.62;0.66
80742;SPS30;70142;50.894;6.052;2023-12-29T09:26:20;2.11;1.95;1.62;1.17;9.37;9.35;9.27;8.87;7.04;0.66
80742;SPS30;70142;50.894;6.052;2023-12-29T09:28:54;2.18;2.01;1.66;1.17;9.40;9.38;9.29;8.87;6.99;0.68
80742;SPS30;70142;50.894;6.052;2023-12-29T09:31:27;1.94;1.79;1.48;1.06;8.49;8.47;8.40;8.03;6.35;0.67
80742;SPS30;70142;50.894;6.052;2023-12-29T09:34:00;2.40;2.22;1.85;1.33;10.63;10.61;10.52;10.07;7.98;0.67
80742;SPS30;70142;50.894;6.052;2023-12-29T09:36:35;2.33;2.15;1.77;1.25;9.98;9.95;9.86;9.41;7.41;0.68
80742;SPS30;70142;50.894;6.052;2023-12-29T09:39:08;2.13;1.96;1.62;1.14;9.13;9.11;9.03;8.61;6.78;0.68